Helas — C4AZ2 — position and weather

sailwx.info

Track history (hours):
 
Tides and Currents Weather Stations Pressure Air Temp Water Temp Dewpoint Dewpoint Depression Visibility Wind Speed Wind Dir Waves Ship Positions

Helas

Last reported at 2014-Aug-20 01:26 UTC. Time now 2014-Aug-20 22:25 UTC.
Position N 50°34' W 005°35'.

Length 89 m; draft 5.1 m.

Type: Cargo ship. MMSI: 210031000.

Date/timePositionNaut miles runAvg speedWind from/ knotsBaromVisibWave heightAir tempDewpointWater temp
2014-Aug-20 01:26N 50°34' W 005°35'8 9.6
2014-Aug-20 00:33N 50°40' W 005°25'10 9.5
2014-Aug-19 23:33N 50°46' W 005°14'8010.0
2014-Aug-19 15:33N 51°21' W 003°19'1010.1
2014-Aug-19 14:33N 51°25' W 003°05'9 8.7
2014-Aug-19 13:33N 51°33' W 002°59'1 0.2
2014-Aug-19 10:21N 51°34' W 002°58'0 0.0
2014-Aug-19 09:24N 51°34' W 002°58'0 0.0
2014-Aug-19 08:27N 51°34' W 002°58'0 0.0
2014-Aug-19 07:33N 51°34' W 002°58'0 0.0
2014-Aug-19 06:27N 51°34' W 002°58'0 0.0
2014-Aug-19 05:30N 51°34' W 002°58'0 0.0
2014-Aug-19 04:33N 51°34' W 002°58'0 0.0
2014-Aug-19 03:33N 51°34' W 002°58'0 0.0
2014-Aug-19 02:33N 51°34' W 002°58'0 0.0
2014-Aug-19 01:33N 51°34' W 002°58'0 0.0
2014-Aug-19 00:27N 51°34' W 002°58'0 0.0
2014-Aug-18 23:27N 51°34' W 002°58'0 0.0
2014-Aug-18 22:32N 51°34' W 002°58'0 0.0
2014-Aug-18 21:26N 51°34' W 002°58'0 0.0
2014-Aug-18 20:32N 51°34' W 002°58'0 0.0
2014-Aug-18 19:32N 51°34' W 002°58'0 0.0
2014-Aug-18 18:32N 51°34' W 002°58'0 0.0
2014-Aug-18 17:26N 51°34' W 002°58'0 0.0
2014-Aug-18 16:32N 51°34' W 002°58'0 0.0
2014-Aug-18 15:32N 51°34' W 002°58'0 0.0
2014-Aug-18 14:32N 51°34' W 002°58'0 0.0
2014-Aug-18 13:32N 51°34' W 002°58'0 0.0
2014-Aug-18 12:32N 51°34' W 002°58'0 0.0
2014-Aug-18 11:29N 51°34' W 002°58'0 0.0
2014-Aug-18 10:32N 51°34' W 002°58'0 0.0
2014-Aug-18 09:32N 51°34' W 002°58'0 0.0
2014-Aug-18 08:32N 51°34' W 002°58'0 0.0
2014-Aug-18 07:32N 51°34' W 002°58'0 0.0
2014-Aug-18 06:32N 51°34' W 002°58'0 0.0
2014-Aug-18 05:32N 51°34' W 002°58'0 0.0
2014-Aug-18 04:32N 51°34' W 002°58'0 0.0
2014-Aug-18 03:32N 51°34' W 002°58'0 0.0
2014-Aug-18 02:32N 51°34' W 002°58'0 0.0
2014-Aug-18 01:32N 51°34' W 002°58'0 0.0
2014-Aug-18 00:32N 51°34' W 002°58'0 0.0
2014-Aug-17 18:29N 51°34' W 002°58'0 0.0
2014-Aug-17 17:32N 51°34' W 002°58'0 0.0
2014-Aug-17 16:32N 51°34' W 002°58'0 0.0
2014-Aug-17 15:29N 51°34' W 002°58'0 0.0
2014-Aug-17 14:32N 51°34' W 002°58'0 0.0
2014-Aug-17 13:31N 51°34' W 002°58'0 0.0
2014-Aug-17 12:31N 51°34' W 002°58'0 0.0
2014-Aug-17 11:31N 51°34' W 002°58'0 0.0
2014-Aug-17 10:31N 51°34' W 002°58'0 0.0
2014-Aug-17 09:31N 51°34' W 002°58'0 0.0
2014-Aug-17 08:31N 51°34' W 002°58'0 0.0
2014-Aug-17 07:31N 51°34' W 002°58'0 0.0
2014-Aug-17 06:31N 51°34' W 002°58'0 0.0
2014-Aug-17 05:31N 51°34' W 002°58'0 0.0
2014-Aug-17 04:31N 51°34' W 002°58'0 0.0
2014-Aug-17 03:31N 51°34' W 002°58'0 0.0
2014-Aug-17 02:31N 51°34' W 002°58'0 0.0
2014-Aug-17 01:31N 51°34' W 002°58'0 0.0
2014-Aug-17 00:31N 51°34' W 002°58'0 0.0
2014-Aug-16 23:31N 51°34' W 002°58'0 0.0
2014-Aug-16 22:31N 51°34' W 002°58'0 0.0
2014-Aug-16 21:31N 51°34' W 002°58'0 0.0
2014-Aug-16 20:25N 51°34' W 002°58'0 0.0
2014-Aug-16 19:31N 51°34' W 002°58'0 0.0
2014-Aug-16 18:19N 51°34' W 002°58'0 0.0
2014-Aug-16 17:19N 51°34' W 002°58'0 0.0
2014-Aug-16 16:28N 51°34' W 002°58'0 0.0
2014-Aug-16 15:31N 51°34' W 002°58'0 0.0
2014-Aug-16 14:25N 51°34' W 002°58'0 0.0
2014-Aug-16 13:28N 51°34' W 002°58'0 0.0
2014-Aug-16 12:31N 51°34' W 002°58'0 0.0
2014-Aug-16 11:31N 51°34' W 002°58'0 0.3
2014-Aug-16 10:32N 51°33' W 002°58'3 3.5
2014-Aug-16 09:34N 51°30' W 002°60'1212.3
2014-Aug-16 08:33N 51°22' W 003°14'6 5.8
2014-Aug-16 07:33N 51°17' W 003°20'3 0.3
2014-Aug-15 22:07N 51°15' W 003°22'0 0.0
2014-Aug-15 21:07N 51°15' W 003°22'0 0.0
2014-Aug-15 20:19N 51°15' W 003°22'0 0.0
2014-Aug-15 19:19N 51°15' W 003°22'102 6.9
2014-Aug-15 04:31N 52°09' W 005°42'11110.1
2014-Aug-14 17:32N 53°42' W 004°03'1212.3
2014-Aug-14 16:33N 53°47' W 003°44'1211.9
2014-Aug-14 15:33N 53°52' W 003°26'1211.8
2014-Aug-14 14:33N 53°57' W 003°08'8 8.3
2014-Aug-14 13:34N 53°59' W 002°54'2 2.2
2014-Aug-14 12:31N 54°00' W 002°51'0 0.0
2014-Aug-14 11:31N 54°00' W 002°51'0 0.0
2014-Aug-14 10:31N 54°00' W 002°51'0 0.0
2014-Aug-14 09:28N 54°00' W 002°51'0 0.0
2014-Aug-14 08:28N 54°00' W 002°51'0 0.0
2014-Aug-14 07:28N 54°00' W 002°51'0 0.0
2014-Aug-14 06:28N 54°00' W 002°51'0 0.0
2014-Aug-14 05:31N 54°00' W 002°51'0 0.0
2014-Aug-14 04:28N 54°00' W 002°51'0 0.0
2014-Aug-14 03:31N 54°00' W 002°51'0 0.0
2014-Aug-14 02:28N 54°00' W 002°51'0 0.0
2014-Aug-14 01:31N 54°00' W 002°51'0 0.0
2014-Aug-14 00:31N 54°00' W 002°51'0 0.0
2014-Aug-13 23:28N 54°00' W 002°51'0 0.0
2014-Aug-13 22:28N 54°00' W 002°51'0 0.0
2014-Aug-13 21:31N 54°00' W 002°51'0 0.0
2014-Aug-13 20:31N 54°00' W 002°51'0 0.0
2014-Aug-13 19:31N 54°00' W 002°51'0 0.0
2014-Aug-13 18:31N 54°00' W 002°51'0 0.0
2014-Aug-13 17:22N 54°00' W 002°51'0 0.0
2014-Aug-13 16:28N 54°00' W 002°51'0 0.0
2014-Aug-13 15:34N 54°00' W 002°51'0 0.0
2014-Aug-13 14:33N 54°00' W 002°51'0 0.0
2014-Aug-13 13:18N 54°00' W 002°51'0 0.0
2014-Aug-13 12:33N 54°00' W 002°51'0 0.0
2014-Aug-13 11:06N 54°00' W 002°51'0 0.0
2014-Aug-13 10:33N 54°00' W 002°51'0 0.0
2014-Aug-13 09:33N 54°00' W 002°51'0 0.0
2014-Aug-13 08:33N 54°00' W 002°51'0 0.0
2014-Aug-13 07:30N 54°00' W 002°51'0 0.0
2014-Aug-13 06:30N 54°00' W 002°51'0 0.0
2014-Aug-13 05:33N 54°00' W 002°51'0 0.0
2014-Aug-13 04:33N 54°00' W 002°51'0 0.0
2014-Aug-13 03:33N 54°00' W 002°51'0 0.0
2014-Aug-13 02:27N 54°00' W 002°51'0 0.0
2014-Aug-13 01:30N 54°00' W 002°51'0 0.0
2014-Aug-13 00:30N 54°00' W 002°51'0 0.0
2014-Aug-12 23:27N 54°00' W 002°51'0 0.0
2014-Aug-12 22:30N 54°00' W 002°51'0 0.0
2014-Aug-12 21:30N 54°00' W 002°51'0 0.0
2014-Aug-12 20:33N 54°00' W 002°51'0 0.0
2014-Aug-12 19:18N 54°00' W 002°51'0 0.0
2014-Aug-12 18:33N 54°00' W 002°51'0 0.0
2014-Aug-12 17:33N 54°00' W 002°51'0 0.0
2014-Aug-12 16:27N 54°00' W 002°51'0 0.0
2014-Aug-12 15:27N 54°00' W 002°51'0 0.0
2014-Aug-12 14:33N 54°00' W 002°51'0 0.0
2014-Aug-12 13:33N 54°00' W 002°51'0 0.0
2014-Aug-12 12:21N 54°00' W 002°51'0 0.0
2014-Aug-12 11:33N 54°00' W 002°51'0 0.0
2014-Aug-12 10:28N 54°00' W 002°51'0 0.0
2014-Aug-12 09:28N 54°00' W 002°51'0 0.0
2014-Aug-12 08:31N 54°00' W 002°51'0 0.0
2014-Aug-12 07:31N 54°00' W 002°51'0 0.0
2014-Aug-12 06:22N 54°00' W 002°51'0 0.0
2014-Aug-12 05:31N 54°00' W 002°51'0 0.0
2014-Aug-12 04:28N 54°00' W 002°51'0 0.0
2014-Aug-12 03:31N 54°00' W 002°51'0 0.0
2014-Aug-12 02:31N 54°00' W 002°51'0 0.0
2014-Aug-12 01:28N 54°00' W 002°51'0 0.0
2014-Aug-12 00:31N 54°00' W 002°51'0 0.2
2014-Aug-11 23:33N 54°00' W 002°51'5 5.1
2014-Aug-11 22:33N 53°59' W 002°59'7 6.8
2014-Aug-11 21:33N 53°56' W 003°10'1211.8
2014-Aug-11 20:33N 53°50' W 003°27'1111.5
2014-Aug-11 19:33N 53°45' W 003°45'1111.0
2014-Aug-11 18:33N 53°40' W 004°01'  
Track history (hours):
 
Tides and Currents Weather Stations Pressure Air Temp Water Temp Dewpoint Dewpoint Depression Visibility Wind Speed Wind Dir Waves Ship Positions

Helas

Last reported at 2014-Aug-20 01:26 UTC. Time now 2014-Aug-20 22:25 UTC.
Position N 50°34' W 005°35'.

Length 89 m; draft 5.1 m.

Type: Cargo ship. MMSI: 210031000.

Date/timePositionNaut miles runAvg speedWind from/ knotsBaromVisibWave heightAir tempDewpointWater temp
2014-Aug-20 01:26N 50°34' W 005°35'8 9.6
2014-Aug-20 00:33N 50°40' W 005°25'10 9.5
2014-Aug-19 23:33N 50°46' W 005°14'8010.0
2014-Aug-19 15:33N 51°21' W 003°19'1010.1
2014-Aug-19 14:33N 51°25' W 003°05'9 8.7
2014-Aug-19 13:33N 51°33' W 002°59'1 0.2
2014-Aug-19 10:21N 51°34' W 002°58'0 0.0
2014-Aug-19 09:24N 51°34' W 002°58'0 0.0
2014-Aug-19 08:27N 51°34' W 002°58'0 0.0
2014-Aug-19 07:33N 51°34' W 002°58'0 0.0
2014-Aug-19 06:27N 51°34' W 002°58'0 0.0
2014-Aug-19 05:30N 51°34' W 002°58'0 0.0
2014-Aug-19 04:33N 51°34' W 002°58'0 0.0
2014-Aug-19 03:33N 51°34' W 002°58'0 0.0
2014-Aug-19 02:33N 51°34' W 002°58'0 0.0
2014-Aug-19 01:33N 51°34' W 002°58'0 0.0
2014-Aug-19 00:27N 51°34' W 002°58'0 0.0
2014-Aug-18 23:27N 51°34' W 002°58'0 0.0
2014-Aug-18 22:32N 51°34' W 002°58'0 0.0
2014-Aug-18 21:26N 51°34' W 002°58'0 0.0
2014-Aug-18 20:32N 51°34' W 002°58'0 0.0
2014-Aug-18 19:32N 51°34' W 002°58'0 0.0
2014-Aug-18 18:32N 51°34' W 002°58'0 0.0
2014-Aug-18 17:26N 51°34' W 002°58'0 0.0
2014-Aug-18 16:32N 51°34' W 002°58'0 0.0
2014-Aug-18 15:32N 51°34' W 002°58'0 0.0
2014-Aug-18 14:32N 51°34' W 002°58'0 0.0
2014-Aug-18 13:32N 51°34' W 002°58'0 0.0
2014-Aug-18 12:32N 51°34' W 002°58'0 0.0
2014-Aug-18 11:29N 51°34' W 002°58'0 0.0
2014-Aug-18 10:32N 51°34' W 002°58'0 0.0
2014-Aug-18 09:32N 51°34' W 002°58'0 0.0
2014-Aug-18 08:32N 51°34' W 002°58'0 0.0
2014-Aug-18 07:32N 51°34' W 002°58'0 0.0
2014-Aug-18 06:32N 51°34' W 002°58'0 0.0
2014-Aug-18 05:32N 51°34' W 002°58'0 0.0
2014-Aug-18 04:32N 51°34' W 002°58'0 0.0
2014-Aug-18 03:32N 51°34' W 002°58'0 0.0
2014-Aug-18 02:32N 51°34' W 002°58'0 0.0
2014-Aug-18 01:32N 51°34' W 002°58'0 0.0
2014-Aug-18 00:32N 51°34' W 002°58'0 0.0
2014-Aug-17 18:29N 51°34' W 002°58'0 0.0
2014-Aug-17 17:32N 51°34' W 002°58'0 0.0
2014-Aug-17 16:32N 51°34' W 002°58'0 0.0
2014-Aug-17 15:29N 51°34' W 002°58'0 0.0
2014-Aug-17 14:32N 51°34' W 002°58'0 0.0
2014-Aug-17 13:31N 51°34' W 002°58'0 0.0
2014-Aug-17 12:31N 51°34' W 002°58'0 0.0
2014-Aug-17 11:31N 51°34' W 002°58'0 0.0
2014-Aug-17 10:31N 51°34' W 002°58'0 0.0
2014-Aug-17 09:31N 51°34' W 002°58'0 0.0
2014-Aug-17 08:31N 51°34' W 002°58'0 0.0
2014-Aug-17 07:31N 51°34' W 002°58'0 0.0
2014-Aug-17 06:31N 51°34' W 002°58'0 0.0
2014-Aug-17 05:31N 51°34' W 002°58'0 0.0
2014-Aug-17 04:31N 51°34' W 002°58'0 0.0
2014-Aug-17 03:31N 51°34' W 002°58'0 0.0
2014-Aug-17 02:31N 51°34' W 002°58'0 0.0
2014-Aug-17 01:31N 51°34' W 002°58'0 0.0
2014-Aug-17 00:31N 51°34' W 002°58'0 0.0
2014-Aug-16 23:31N 51°34' W 002°58'0 0.0
2014-Aug-16 22:31N 51°34' W 002°58'0 0.0
2014-Aug-16 21:31N 51°34' W 002°58'0 0.0
2014-Aug-16 20:25N 51°34' W 002°58'0 0.0
2014-Aug-16 19:31N 51°34' W 002°58'0 0.0
2014-Aug-16 18:19N 51°34' W 002°58'0 0.0
2014-Aug-16 17:19N 51°34' W 002°58'0 0.0
2014-Aug-16 16:28N 51°34' W 002°58'0 0.0
2014-Aug-16 15:31N 51°34' W 002°58'0 0.0
2014-Aug-16 14:25N 51°34' W 002°58'0 0.0
2014-Aug-16 13:28N 51°34' W 002°58'0 0.0
2014-Aug-16 12:31N 51°34' W 002°58'0 0.0
2014-Aug-16 11:31N 51°34' W 002°58'0 0.3
2014-Aug-16 10:32N 51°33' W 002°58'3 3.5
2014-Aug-16 09:34N 51°30' W 002°60'1212.3
2014-Aug-16 08:33N 51°22' W 003°14'6 5.8
2014-Aug-16 07:33N 51°17' W 003°20'3 0.3
2014-Aug-15 22:07N 51°15' W 003°22'0 0.0
2014-Aug-15 21:07N 51°15' W 003°22'0 0.0
2014-Aug-15 20:19N 51°15' W 003°22'0 0.0
2014-Aug-15 19:19N 51°15' W 003°22'102 6.9
2014-Aug-15 04:31N 52°09' W 005°42'11110.1
2014-Aug-14 17:32N 53°42' W 004°03'1212.3
2014-Aug-14 16:33N 53°47' W 003°44'1211.9
2014-Aug-14 15:33N 53°52' W 003°26'1211.8
2014-Aug-14 14:33N 53°57' W 003°08'8 8.3
2014-Aug-14 13:34N 53°59' W 002°54'2 2.2
2014-Aug-14 12:31N 54°00' W 002°51'0 0.0
2014-Aug-14 11:31N 54°00' W 002°51'0 0.0
2014-Aug-14 10:31N 54°00' W 002°51'0 0.0
2014-Aug-14 09:28N 54°00' W 002°51'0 0.0
2014-Aug-14 08:28N 54°00' W 002°51'0 0.0
2014-Aug-14 07:28N 54°00' W 002°51'0 0.0
2014-Aug-14 06:28N 54°00' W 002°51'0 0.0
2014-Aug-14 05:31N 54°00' W 002°51'0 0.0
2014-Aug-14 04:28N 54°00' W 002°51'0 0.0
2014-Aug-14 03:31N 54°00' W 002°51'0 0.0
2014-Aug-14 02:28N 54°00' W 002°51'0 0.0
2014-Aug-14 01:31N 54°00' W 002°51'0 0.0
2014-Aug-14 00:31N 54°00' W 002°51'0 0.0
2014-Aug-13 23:28N 54°00' W 002°51'0 0.0
2014-Aug-13 22:28N 54°00' W 002°51'0 0.0
2014-Aug-13 21:31N 54°00' W 002°51'0 0.0
2014-Aug-13 20:31N 54°00' W 002°51'0 0.0
2014-Aug-13 19:31N 54°00' W 002°51'0 0.0
2014-Aug-13 18:31N 54°00' W 002°51'0 0.0
2014-Aug-13 17:22N 54°00' W 002°51'0 0.0
2014-Aug-13 16:28N 54°00' W 002°51'0 0.0
2014-Aug-13 15:34N 54°00' W 002°51'0 0.0
2014-Aug-13 14:33N 54°00' W 002°51'0 0.0
2014-Aug-13 13:18N 54°00' W 002°51'0 0.0
2014-Aug-13 12:33N 54°00' W 002°51'0 0.0
2014-Aug-13 11:06N 54°00' W 002°51'0 0.0
2014-Aug-13 10:33N 54°00' W 002°51'0 0.0
2014-Aug-13 09:33N 54°00' W 002°51'0 0.0
2014-Aug-13 08:33N 54°00' W 002°51'0 0.0
2014-Aug-13 07:30N 54°00' W 002°51'0 0.0
2014-Aug-13 06:30N 54°00' W 002°51'0 0.0
2014-Aug-13 05:33N 54°00' W 002°51'0 0.0
2014-Aug-13 04:33N 54°00' W 002°51'0 0.0
2014-Aug-13 03:33N 54°00' W 002°51'0 0.0
2014-Aug-13 02:27N 54°00' W 002°51'0 0.0
2014-Aug-13 01:30N 54°00' W 002°51'0 0.0
2014-Aug-13 00:30N 54°00' W 002°51'0 0.0
2014-Aug-12 23:27N 54°00' W 002°51'0 0.0
2014-Aug-12 22:30N 54°00' W 002°51'0 0.0
2014-Aug-12 21:30N 54°00' W 002°51'0 0.0
2014-Aug-12 20:33N 54°00' W 002°51'0 0.0
2014-Aug-12 19:18N 54°00' W 002°51'0 0.0
2014-Aug-12 18:33N 54°00' W 002°51'0 0.0
2014-Aug-12 17:33N 54°00' W 002°51'0 0.0
2014-Aug-12 16:27N 54°00' W 002°51'0 0.0
2014-Aug-12 15:27N 54°00' W 002°51'0 0.0
2014-Aug-12 14:33N 54°00' W 002°51'0 0.0
2014-Aug-12 13:33N 54°00' W 002°51'0 0.0
2014-Aug-12 12:21N 54°00' W 002°51'0 0.0
2014-Aug-12 11:33N 54°00' W 002°51'0 0.0
2014-Aug-12 10:28N 54°00' W 002°51'0 0.0
2014-Aug-12 09:28N 54°00' W 002°51'0 0.0
2014-Aug-12 08:31N 54°00' W 002°51'0 0.0
2014-Aug-12 07:31N 54°00' W 002°51'0 0.0
2014-Aug-12 06:22N 54°00' W 002°51'0 0.0
2014-Aug-12 05:31N 54°00' W 002°51'0 0.0
2014-Aug-12 04:28N 54°00' W 002°51'0 0.0
2014-Aug-12 03:31N 54°00' W 002°51'0 0.0
2014-Aug-12 02:31N 54°00' W 002°51'0 0.0
2014-Aug-12 01:28N 54°00' W 002°51'0 0.0
2014-Aug-12 00:31N 54°00' W 002°51'0 0.2
2014-Aug-11 23:33N 54°00' W 002°51'5 5.1
2014-Aug-11 22:33N 53°59' W 002°59'7 6.8
2014-Aug-11 21:33N 53°56' W 003°10'1211.8
2014-Aug-11 20:33N 53°50' W 003°27'1111.5
2014-Aug-11 19:33N 53°45' W 003°45'1111.0
2014-Aug-11 18:33N 53°40' W 004°01'  

Dump ship's entire track history